createdAt,value
2023-01-13T00:01:55.376Z,9.60
2023-01-13T00:06:02.564Z,9.80
2023-01-13T00:10:11.105Z,9.80
2023-01-13T00:14:18.217Z,9.80
2023-01-13T00:18:25.463Z,9.60
2023-01-13T00:22:36.568Z,9.60
2023-01-13T00:26:43.310Z,9.50
2023-01-13T00:30:50.493Z,9.30
2023-01-13T00:34:57.477Z,9.30
2023-01-13T00:39:04.676Z,9.20
2023-01-13T00:43:23.322Z,9.10
2023-01-13T00:47:30.125Z,9.00
2023-01-13T00:51:36.847Z,8.90
2023-01-13T00:55:43.624Z,8.80
2023-01-13T00:59:50.405Z,8.70
2023-01-13T01:03:57.202Z,8.70
2023-01-13T01:08:04.011Z,8.60
2023-01-13T01:12:10.789Z,9.60
2023-01-13T01:16:19.650Z,8.70
2023-01-13T01:20:26.458Z,8.80
2023-01-13T01:24:33.235Z,8.70
2023-01-13T01:28:40.522Z,8.80
2023-01-13T01:32:47.241Z,8.70
2023-01-13T01:36:54.007Z,8.70
2023-01-13T01:41:00.802Z,8.70
2023-01-13T01:45:25.020Z,8.60
2023-01-13T01:49:36.756Z,8.70
2023-01-13T01:53:44.025Z,8.70
2023-01-13T01:57:56.849Z,8.70
2023-01-13T02:02:03.802Z,8.70
2023-01-13T02:06:11.954Z,8.60
2023-01-13T02:10:21.891Z,8.60
2023-01-13T02:14:30.570Z,8.60
2023-01-13T02:18:50.327Z,8.50
2023-01-13T02:22:59.837Z,8.50
2023-01-13T02:27:28.591Z,8.50
2023-01-13T02:31:44.468Z,8.40
2023-01-13T02:36:15.526Z,8.50
2023-01-13T02:40:27.101Z,8.40
2023-01-13T02:44:44.161Z,8.40
2023-01-13T02:48:54.484Z,8.40
2023-01-13T02:53:08.579Z,8.40
2023-01-13T02:57:17.578Z,8.40
2023-01-13T03:01:24.804Z,8.40
2023-01-13T03:05:33.222Z,8.40
2023-01-13T03:09:45.199Z,8.40
2023-01-13T03:13:57.708Z,8.40
2023-01-13T03:18:13.270Z,8.50
2023-01-13T03:22:48.696Z,8.60
2023-01-13T03:27:08.257Z,8.50
2023-01-13T03:31:21.424Z,8.50
2023-01-13T03:35:32.497Z,8.50
2023-01-13T03:39:47.077Z,8.50
2023-01-13T03:44:23.492Z,8.60
2023-01-13T03:48:34.375Z,8.60
2023-01-13T03:52:47.569Z,9.90
2023-01-13T03:57:01.354Z,8.70
2023-01-13T04:01:19.085Z,8.80
2023-01-13T04:05:27.287Z,8.70
2023-01-13T04:09:49.994Z,10.10
2023-01-13T04:13:56.744Z,8.60
2023-01-13T04:18:15.403Z,8.50
2023-01-13T04:22:22.120Z,8.50
2023-01-13T04:26:28.928Z,8.60
2023-01-13T04:30:36.266Z,8.60
2023-01-13T04:34:43.005Z,8.50
2023-01-13T04:38:50.580Z,8.40
2023-01-13T04:42:57.284Z,8.40
2023-01-13T04:47:04.499Z,8.40
2023-01-13T04:51:11.455Z,8.40
2023-01-13T04:55:19.841Z,8.80
2023-01-13T04:59:26.542Z,8.20
2023-01-13T05:03:33.296Z,8.20
2023-01-13T05:07:40.006Z,8.20
2023-01-13T05:12:05.365Z,8.20
2023-01-13T05:16:31.042Z,8.10
2023-01-13T05:20:37.891Z,8.10
2023-01-13T05:25:03.612Z,8.10
2023-01-13T05:29:10.419Z,8.10
2023-01-13T05:33:20.225Z,8.00
2023-01-13T05:37:28.309Z,7.90
2023-01-13T05:41:53.463Z,7.90
2023-01-13T05:46:05.570Z,8.00
2023-01-13T05:50:12.380Z,8.10
2023-01-13T05:54:19.104Z,8.10
2023-01-13T05:58:27.752Z,8.20
2023-01-13T06:02:34.487Z,8.30
2023-01-13T06:06:43.111Z,8.30
2023-01-13T06:10:49.880Z,8.30
2023-01-13T06:14:56.595Z,8.30
2023-01-13T06:19:03.291Z,8.30
2023-01-13T06:23:11.482Z,8.30
2023-01-13T06:27:18.573Z,8.20
2023-01-13T06:31:28.661Z,8.10
2023-01-13T06:35:39.301Z,8.10
2023-01-13T06:39:46.626Z,8.00
2023-01-13T06:43:53.311Z,7.90
2023-01-13T06:48:00.748Z,8.00
2023-01-13T06:52:07.411Z,8.00
2023-01-13T06:56:14.132Z,8.10
2023-01-13T07:00:22.383Z,8.20
2023-01-13T07:04:29.088Z,8.20
2023-01-13T07:08:35.762Z,8.30
2023-01-13T07:13:01.185Z,8.30
2023-01-13T07:17:07.874Z,8.30
2023-01-13T07:21:18.787Z,8.20
2023-01-13T07:25:26.007Z,8.40
2023-01-13T07:29:32.665Z,8.30
2023-01-13T07:33:39.361Z,8.30
2023-01-13T07:37:46.047Z,8.40
2023-01-13T07:42:11.434Z,8.50
2023-01-13T07:46:18.825Z,8.60
2023-01-13T07:50:25.913Z,8.50
2023-01-13T07:54:40.587Z,8.40
2023-01-13T07:58:50.950Z,8.50
2023-01-13T08:03:02.879Z,8.50
2023-01-13T08:07:09.947Z,8.60
2023-01-13T08:11:17.197Z,8.60
2023-01-13T08:15:23.934Z,8.70
2023-01-13T08:19:30.625Z,8.60
2023-01-13T08:23:37.792Z,8.70
2023-01-13T08:27:44.518Z,8.70
2023-01-13T08:31:51.263Z,8.70
2023-01-13T08:35:58.435Z,8.70
2023-01-13T08:40:06.303Z,8.70
2023-01-13T08:44:12.958Z,8.70
2023-01-13T08:48:19.938Z,8.60
2023-01-13T08:52:26.678Z,8.70
2023-01-13T08:56:35.522Z,8.70
2023-01-13T09:00:43.355Z,8.70
2023-01-13T09:04:50.897Z,8.70
2023-01-13T09:08:58.134Z,8.80
2023-01-13T09:13:13.784Z,8.80
2023-01-13T09:17:20.679Z,9.00
2023-01-13T09:21:27.458Z,9.10
2023-01-13T09:25:36.558Z,8.90
2023-01-13T09:29:43.311Z,9.00
2023-01-13T09:34:08.681Z,9.00
2023-01-13T09:38:15.364Z,9.00
2023-01-13T09:42:43.680Z,8.80
2023-01-13T09:46:53.489Z,8.80
2023-01-13T09:51:24.456Z,8.80
2023-01-13T09:55:36.537Z,8.70
2023-01-13T09:59:43.789Z,8.70
2023-01-13T10:03:50.763Z,8.70
2023-01-13T10:08:27.021Z,8.70
2023-01-13T10:12:52.542Z,8.60
2023-01-13T10:17:21.063Z,8.60
2023-01-13T10:21:51.989Z,8.60
2023-01-13T10:26:10.745Z,8.60
2023-01-13T10:30:24.368Z,8.60
2023-01-13T10:34:31.091Z,8.60
2023-01-13T10:38:48.796Z,8.70
2023-01-13T10:43:06.524Z,8.80
2023-01-13T10:47:25.328Z,8.80
2023-01-13T10:51:38.089Z,9.00
2023-01-13T10:56:01.794Z,9.10
2023-01-13T11:00:26.928Z,9.20
2023-01-13T11:04:42.362Z,9.00
2023-01-13T11:08:51.209Z,9.00
2023-01-13T11:13:25.460Z,9.00
2023-01-13T11:18:00.862Z,9.00
2023-01-13T11:22:16.009Z,8.90
2023-01-13T11:26:40.590Z,8.80
2023-01-13T11:30:56.189Z,8.90
2023-01-13T11:35:14.933Z,8.90
2023-01-13T11:39:35.042Z,8.80
2023-01-13T11:44:07.752Z,8.70
2023-01-13T11:48:15.940Z,8.90
2023-01-13T11:52:55.254Z,9.10
2023-01-13T11:57:32.573Z,9.10
2023-01-13T12:01:58.220Z,9.20
2023-01-13T12:06:34.506Z,9.30
2023-01-13T12:11:05.351Z,9.30
2023-01-13T12:15:27.681Z,9.30
2023-01-13T12:19:34.370Z,9.20
2023-01-13T12:24:06.269Z,9.20
2023-01-13T12:28:49.055Z,9.10
2023-01-13T12:32:59.933Z,9.20
2023-01-13T12:37:43.055Z,9.20
2023-01-13T12:42:23.074Z,9.20
2023-01-13T12:46:29.717Z,9.20
2023-01-13T12:50:37.706Z,9.40
2023-01-13T12:54:44.322Z,9.40
2023-01-13T12:58:51.119Z,9.40
2023-01-13T13:03:13.851Z,9.30
2023-01-13T13:07:29.464Z,9.40
2023-01-13T13:11:57.616Z,9.40
2023-01-13T13:16:26.069Z,9.40
2023-01-13T13:20:53.751Z,9.50
2023-01-13T13:25:20.575Z,9.40
2023-01-13T13:29:44.021Z,9.50
2023-01-13T13:34:17.787Z,9.60
2023-01-13T13:38:58.397Z,9.60
2023-01-13T13:43:30.010Z,9.60
2023-01-13T13:47:38.612Z,9.60
2023-01-13T13:52:03.980Z,9.60
2023-01-13T13:56:23.313Z,9.60
2023-01-13T14:00:33.280Z,9.70
2023-01-13T14:04:40.731Z,9.80
2023-01-13T14:08:50.452Z,9.70
2023-01-13T14:12:59.006Z,9.90
2023-01-13T14:17:05.665Z,10.00
2023-01-13T14:21:15.282Z,10.00
2023-01-13T14:25:47.141Z,10.00
2023-01-13T14:29:55.662Z,9.80
2023-01-13T14:34:32.553Z,9.70
2023-01-13T14:38:31.309Z,9.80
2023-01-13T14:42:37.994Z,9.90
2023-01-13T14:46:45.937Z,9.80
2023-01-13T14:50:52.733Z,9.80
2023-01-13T14:55:11.279Z,9.70
2023-01-13T14:59:42.755Z,9.60
2023-01-13T15:03:50.984Z,9.60
2023-01-13T15:08:09.835Z,9.50
2023-01-13T15:12:31.631Z,9.60
2023-01-13T15:16:38.932Z,9.60
2023-01-13T15:20:46.014Z,9.50
2023-01-13T15:24:52.822Z,9.50
2023-01-13T15:29:01.013Z,9.50
2023-01-13T15:33:13.164Z,9.30
2023-01-13T15:37:19.846Z,9.10
2023-01-13T15:41:45.625Z,9.00
2023-01-13T15:46:11.070Z,8.90
2023-01-13T15:50:18.433Z,8.90
2023-01-13T15:54:25.126Z,9.10
2023-01-13T15:58:31.820Z,9.10
2023-01-13T16:02:38.599Z,7.90
2023-01-13T16:06:45.639Z,9.00
2023-01-13T16:10:52.354Z,9.10
2023-01-13T16:15:00.395Z,9.10
2023-01-13T16:19:07.095Z,9.10
2023-01-13T16:23:14.149Z,9.10
2023-01-13T16:27:23.684Z,9.00
2023-01-13T16:31:33.381Z,9.00
2023-01-13T16:36:08.956Z,8.80
2023-01-13T16:40:07.529Z,8.70
2023-01-13T16:44:14.246Z,8.60
2023-01-13T16:48:22.666Z,8.60
2023-01-13T16:52:29.392Z,8.80
2023-01-13T16:56:36.778Z,8.80
2023-01-13T17:00:46.795Z,8.70
2023-01-13T17:04:53.545Z,8.70
2023-01-13T17:09:02.248Z,8.70
2023-01-13T17:13:15.901Z,8.50
2023-01-13T17:17:27.781Z,8.50
2023-01-13T17:21:34.435Z,8.50
2023-01-13T17:25:41.135Z,8.50
2023-01-13T17:29:47.898Z,8.40
2023-01-13T17:33:55.012Z,8.40
2023-01-13T17:38:02.977Z,8.40
2023-01-13T17:42:10.761Z,8.30
2023-01-13T17:46:18.452Z,8.10
2023-01-13T17:50:27.657Z,8.10
2023-01-13T17:54:34.348Z,8.00
2023-01-13T17:58:41.696Z,7.80
2023-01-13T18:02:48.421Z,7.90
2023-01-13T18:06:56.906Z,7.90
2023-01-13T18:11:03.611Z,7.80
2023-01-13T18:15:10.547Z,7.70
2023-01-13T18:19:36.276Z,7.80
2023-01-13T18:24:01.787Z,7.70
2023-01-13T18:28:08.630Z,7.60
2023-01-13T18:32:15.550Z,7.60
2023-01-13T18:36:22.334Z,7.70
2023-01-13T18:40:29.067Z,7.70
2023-01-13T18:44:35.742Z,7.80
2023-01-13T18:48:42.439Z,7.70
2023-01-13T18:52:49.299Z,7.70
2023-01-13T18:56:57.057Z,7.70
2023-01-13T19:01:05.205Z,7.60
2023-01-13T19:05:11.971Z,7.60
2023-01-13T19:09:27.159Z,7.60
2023-01-13T19:13:35.980Z,7.50
2023-01-13T19:17:44.928Z,10.00
2023-01-13T19:21:52.390Z,7.40
2023-01-13T19:26:04.623Z,7.50
2023-01-13T19:30:11.869Z,7.40
2023-01-13T19:34:18.756Z,7.40
2023-01-13T19:38:27.699Z,7.40
2023-01-13T19:43:09.964Z,7.40
2023-01-13T19:47:17.009Z,7.40
2023-01-13T19:51:23.677Z,7.30
2023-01-13T19:55:31.827Z,7.30
2023-01-13T19:59:40.956Z,7.40
2023-01-13T20:03:47.822Z,7.40
2023-01-13T20:07:54.596Z,7.40
2023-01-13T20:12:20.061Z,7.40
2023-01-13T20:16:30.358Z,7.40
2023-01-13T20:20:37.752Z,7.30
2023-01-13T20:24:44.474Z,7.30
2023-01-13T20:28:51.222Z,7.30
2023-01-13T20:32:57.917Z,7.30
2023-01-13T20:37:04.606Z,7.40
2023-01-13T20:41:29.914Z,7.40
2023-01-13T20:45:36.741Z,7.50
2023-01-13T20:49:43.424Z,7.80
2023-01-13T20:53:50.112Z,7.60
2023-01-13T20:57:56.802Z,7.60
2023-01-13T21:02:11.967Z,7.50
2023-01-13T21:06:20.393Z,7.50
2023-01-13T21:10:27.078Z,7.60
2023-01-13T21:14:52.998Z,7.60
2023-01-13T21:19:10.466Z,7.50
2023-01-13T21:23:17.247Z,7.50
2023-01-13T21:27:24.312Z,7.60
2023-01-13T21:31:31.023Z,7.60
2023-01-13T21:35:38.807Z,7.70
2023-01-13T21:39:45.536Z,7.70
2023-01-13T21:44:10.937Z,7.70
2023-01-13T21:48:17.617Z,7.70
2023-01-13T21:52:26.103Z,7.60
2023-01-13T21:56:33.718Z,7.50
2023-01-13T22:00:43.374Z,7.50
2023-01-13T22:04:50.106Z,7.50
2023-01-13T22:09:00.967Z,7.50
2023-01-13T22:13:29.521Z,7.30
2023-01-13T22:17:36.706Z,7.30
2023-01-13T22:21:43.442Z,7.20
2023-01-13T22:25:50.130Z,7.20
2023-01-13T22:29:58.135Z,7.30
2023-01-13T22:34:04.928Z,7.20
2023-01-13T22:38:12.140Z,7.30
2023-01-13T22:42:18.851Z,7.30
2023-01-13T22:46:25.522Z,7.50
2023-01-13T22:50:33.945Z,7.50
2023-01-13T22:54:40.597Z,7.60
2023-01-13T22:58:47.428Z,7.60
2023-01-13T23:02:54.109Z,7.60
2023-01-13T23:07:00.793Z,7.60
2023-01-13T23:11:12.829Z,7.60
2023-01-13T23:15:20.359Z,7.60
2023-01-13T23:19:27.056Z,7.60
2023-01-13T23:23:34.431Z,7.50
2023-01-13T23:27:41.163Z,7.50
2023-01-13T23:31:47.919Z,7.40
2023-01-13T23:36:03.308Z,7.40
2023-01-13T23:40:10.512Z,7.40
2023-01-13T23:44:17.187Z,7.40
2023-01-13T23:48:23.875Z,7.40
2023-01-13T23:52:30.585Z,7.50
2023-01-13T23:56:39.580Z,7.40
